createdAt,value
2023-02-26T00:01:15.055Z,100.00
2023-02-26T00:03:42.052Z,100.00
2023-02-26T00:06:09.514Z,100.00
2023-02-26T00:08:36.534Z,100.00
2023-02-26T00:11:06.774Z,100.00
2023-02-26T00:13:33.843Z,100.00
2023-02-26T00:16:01.899Z,99.73
2023-02-26T00:18:29.189Z,98.39
2023-02-26T00:20:56.108Z,97.88
2023-02-26T00:23:24.101Z,96.81
2023-02-26T00:25:50.738Z,96.92
2023-02-26T00:28:17.729Z,97.03
2023-02-26T00:30:45.599Z,95.78
2023-02-26T00:33:12.401Z,95.56
2023-02-26T00:35:39.294Z,95.98
2023-02-26T00:38:09.272Z,96.08
2023-02-26T00:40:48.126Z,95.30
2023-02-26T00:43:24.708Z,95.76
2023-02-26T00:46:03.877Z,94.91
2023-02-26T00:48:49.182Z,94.84
2023-02-26T00:51:31.148Z,93.96
2023-02-26T00:54:19.509Z,93.33
2023-02-26T00:56:46.085Z,93.05
2023-02-26T00:59:12.683Z,93.34
2023-02-26T01:01:39.781Z,93.38
2023-02-26T01:04:07.071Z,92.98
2023-02-26T01:06:38.441Z,92.80
2023-02-26T01:09:08.003Z,93.86
2023-02-26T01:11:35.521Z,93.72
2023-02-26T01:14:04.484Z,93.21
2023-02-26T01:16:38.173Z,93.20
2023-02-26T01:19:33.756Z,92.66
2023-02-26T01:22:07.963Z,92.15
2023-02-26T01:24:36.430Z,92.80
2023-02-26T01:27:03.598Z,92.86
2023-02-26T01:29:30.382Z,92.08
2023-02-26T01:32:15.956Z,91.82
2023-02-26T01:34:47.245Z,91.58
2023-02-26T01:37:34.184Z,92.03
2023-02-26T01:40:51.467Z,92.12
2023-02-26T01:43:28.845Z,92.05
2023-02-26T01:46:05.450Z,93.14
2023-02-26T01:48:47.239Z,93.11
2023-02-26T01:51:13.964Z,93.63
2023-02-26T01:53:40.560Z,92.72
2023-02-26T01:56:19.499Z,91.80
2023-02-26T01:58:50.076Z,91.43
2023-02-26T02:01:16.658Z,90.72
2023-02-26T02:03:43.600Z,91.05
2023-02-26T02:06:18.171Z,90.66
2023-02-26T02:08:45.560Z,91.05
2023-02-26T02:11:13.234Z,90.90
2023-02-26T02:13:45.987Z,90.54
2023-02-26T02:16:37.178Z,89.94
2023-02-26T02:19:10.077Z,90.48
2023-02-26T02:21:54.356Z,90.84
2023-02-26T02:24:28.899Z,90.90
2023-02-26T02:27:18.969Z,92.08
2023-02-26T02:30:24.157Z,90.86
2023-02-26T02:33:15.066Z,91.32
2023-02-26T02:35:48.611Z,91.09
2023-02-26T02:38:21.410Z,91.74
2023-02-26T02:40:55.120Z,91.69
2023-02-26T02:43:28.752Z,91.24
2023-02-26T02:46:04.120Z,90.73
2023-02-26T02:48:42.349Z,90.79
2023-02-26T02:51:53.788Z,91.74
2023-02-26T02:54:26.593Z,91.53
2023-02-26T02:57:04.468Z,90.89
2023-02-26T02:59:45.467Z,91.47
2023-02-26T03:02:33.846Z,91.29
2023-02-26T03:05:00.584Z,91.49
2023-02-26T03:07:33.298Z,91.78
2023-02-26T03:10:00.197Z,91.32
2023-02-26T03:12:31.172Z,91.20
2023-02-26T03:14:58.423Z,91.18
2023-02-26T03:18:09.823Z,90.74
2023-02-26T03:20:47.202Z,90.39
2023-02-26T03:23:16.863Z,91.06
2023-02-26T03:26:03.390Z,91.37
2023-02-26T03:28:41.835Z,92.06
2023-02-26T03:31:21.009Z,92.15
2023-02-26T03:34:00.390Z,92.37
2023-02-26T03:36:31.801Z,92.99
2023-02-26T03:39:23.023Z,93.91
2023-02-26T03:42:08.355Z,92.64
2023-02-26T03:44:59.144Z,92.15
2023-02-26T03:47:27.414Z,92.68
2023-02-26T03:50:13.273Z,93.67
2023-02-26T03:52:50.689Z,93.92
2023-02-26T03:55:32.519Z,92.90
2023-02-26T03:58:06.132Z,92.67
2023-02-26T04:00:46.362Z,93.36
2023-02-26T04:03:19.312Z,93.76
2023-02-26T04:05:51.629Z,93.04
2023-02-26T04:08:20.793Z,93.25
2023-02-26T04:11:06.210Z,93.15
2023-02-26T04:13:33.340Z,93.05
2023-02-26T04:16:01.147Z,92.51
2023-02-26T04:18:28.609Z,92.22
2023-02-26T04:20:55.979Z,92.14
2023-02-26T04:23:22.698Z,91.91
2023-02-26T04:25:49.460Z,92.79
2023-02-26T04:28:16.847Z,92.81
2023-02-26T04:30:43.950Z,92.66
2023-02-26T04:33:13.829Z,92.32
2023-02-26T04:35:40.625Z,92.78
2023-02-26T04:38:07.663Z,92.44
2023-02-26T04:40:34.356Z,93.45
2023-02-26T04:43:00.987Z,93.30
2023-02-26T04:45:32.050Z,93.61
2023-02-26T04:47:58.643Z,93.54
2023-02-26T04:50:25.328Z,92.86
2023-02-26T04:52:53.405Z,93.69
2023-02-26T04:55:20.742Z,93.88
2023-02-26T04:57:47.391Z,93.60
2023-02-26T05:00:18.529Z,94.13
2023-02-26T05:02:45.230Z,93.29
2023-02-26T05:05:15.736Z,94.30
2023-02-26T05:07:42.334Z,94.68
2023-02-26T05:10:12.964Z,94.14
2023-02-26T05:12:39.991Z,93.90
2023-02-26T05:15:07.133Z,93.43
2023-02-26T05:17:33.809Z,94.78
2023-02-26T05:20:00.371Z,94.34
2023-02-26T05:22:26.990Z,94.83
2023-02-26T05:24:53.783Z,94.48
2023-02-26T05:27:20.408Z,94.99
2023-02-26T05:29:47.785Z,94.92
2023-02-26T05:32:14.936Z,95.15
2023-02-26T05:34:41.604Z,94.64
2023-02-26T05:37:08.180Z,94.41
2023-02-26T05:39:34.747Z,94.83
2023-02-26T05:42:01.448Z,95.41
2023-02-26T05:44:28.327Z,95.76
2023-02-26T05:46:55.141Z,96.08
2023-02-26T05:49:21.947Z,95.44
2023-02-26T05:51:48.712Z,95.65
2023-02-26T05:54:15.409Z,96.18
2023-02-26T05:56:42.038Z,96.67
2023-02-26T05:59:08.987Z,96.66
2023-02-26T06:01:37.365Z,97.01
2023-02-26T06:04:05.488Z,97.36
2023-02-26T06:06:32.954Z,97.28
2023-02-26T06:09:01.273Z,97.67
2023-02-26T06:11:33.958Z,97.48
2023-02-26T06:14:00.991Z,98.55
2023-02-26T06:16:28.604Z,98.96
2023-02-26T06:18:55.298Z,98.54
2023-02-26T06:21:22.093Z,98.86
2023-02-26T06:23:48.643Z,99.03
2023-02-26T06:26:15.448Z,98.60
2023-02-26T06:28:42.061Z,97.85
2023-02-26T06:31:08.706Z,98.23
2023-02-26T06:33:35.294Z,98.83
2023-02-26T06:36:02.538Z,98.85
2023-02-26T06:38:29.536Z,99.03
2023-02-26T06:40:56.176Z,98.46
2023-02-26T06:43:22.735Z,98.50
2023-02-26T06:45:49.631Z,98.79
2023-02-26T06:48:16.426Z,98.90
2023-02-26T06:50:43.201Z,98.35
2023-02-26T06:53:09.879Z,98.75
2023-02-26T06:55:36.951Z,97.83
2023-02-26T06:58:03.680Z,97.90
2023-02-26T07:00:30.444Z,97.87
2023-02-26T07:02:58.335Z,97.54
2023-02-26T07:05:25.319Z,97.76
2023-02-26T07:07:52.121Z,97.37
2023-02-26T07:10:18.922Z,97.76
2023-02-26T07:12:45.610Z,97.85
2023-02-26T07:15:12.414Z,97.42
2023-02-26T07:17:39.181Z,97.11
2023-02-26T07:20:13.102Z,97.49
2023-02-26T07:22:39.884Z,97.32
2023-02-26T07:25:07.555Z,96.62
2023-02-26T07:27:34.647Z,97.44
2023-02-26T07:30:01.534Z,97.15
2023-02-26T07:32:28.777Z,96.97
2023-02-26T07:34:55.505Z,96.42
2023-02-26T07:37:22.497Z,96.21
2023-02-26T07:39:49.367Z,95.30
2023-02-26T07:42:16.511Z,94.41
2023-02-26T07:44:43.523Z,94.78
2023-02-26T07:47:10.946Z,94.87
2023-02-26T07:49:38.263Z,93.68
2023-02-26T07:52:07.086Z,93.51
2023-02-26T07:54:35.318Z,93.14
2023-02-26T07:57:02.125Z,92.54
2023-02-26T07:59:28.886Z,92.43
2023-02-26T08:01:55.845Z,92.59
2023-02-26T08:04:23.192Z,92.46
2023-02-26T08:06:50.029Z,92.25
2023-02-26T08:09:16.893Z,92.19
2023-02-26T08:11:43.596Z,91.20
2023-02-26T08:14:11.979Z,90.56
2023-02-26T08:16:38.663Z,89.81
2023-02-26T08:19:05.514Z,88.27
2023-02-26T08:21:32.249Z,87.60
2023-02-26T08:23:58.940Z,87.40
2023-02-26T08:26:25.984Z,87.18
2023-02-26T08:28:53.394Z,85.58
2023-02-26T08:31:20.279Z,86.39
2023-02-26T08:33:48.020Z,84.80
2023-02-26T08:36:14.783Z,85.15
2023-02-26T08:38:41.501Z,84.77
2023-02-26T08:41:08.393Z,84.29
2023-02-26T08:43:35.285Z,83.97
2023-02-26T08:46:01.999Z,83.67
2023-02-26T08:48:28.855Z,83.64
2023-02-26T08:50:55.598Z,82.55
2023-02-26T08:53:22.537Z,81.78
2023-02-26T08:55:53.473Z,82.81
2023-02-26T08:58:20.657Z,82.06
2023-02-26T09:00:47.781Z,80.27
2023-02-26T09:03:14.921Z,80.81
2023-02-26T09:05:41.604Z,79.76
2023-02-26T09:08:09.601Z,79.05
2023-02-26T09:10:36.366Z,78.08
2023-02-26T09:13:03.266Z,77.31
2023-02-26T09:15:30.107Z,77.29
2023-02-26T09:17:58.123Z,76.20
2023-02-26T09:20:25.007Z,77.39
2023-02-26T09:22:51.774Z,76.14
2023-02-26T09:25:18.494Z,75.73
2023-02-26T09:27:45.275Z,74.08
2023-02-26T09:30:12.904Z,72.48
2023-02-26T09:32:39.880Z,72.30
2023-02-26T09:35:07.151Z,72.92
2023-02-26T09:37:34.144Z,71.89
2023-02-26T09:40:00.964Z,70.05
2023-02-26T09:42:49.369Z,70.39
2023-02-26T09:45:30.768Z,68.79
2023-02-26T09:47:59.263Z,66.95
2023-02-26T09:50:38.128Z,67.99
2023-02-26T09:53:10.671Z,68.29
2023-02-26T09:55:43.846Z,66.36
2023-02-26T09:58:37.496Z,65.74
2023-02-26T10:01:21.385Z,64.15
2023-02-26T10:04:16.220Z,63.04
2023-02-26T10:07:04.540Z,63.50
2023-02-26T10:10:01.841Z,62.54
2023-02-26T10:12:33.632Z,63.16
2023-02-26T10:15:09.640Z,60.58
2023-02-26T10:17:55.689Z,61.21
2023-02-26T10:20:47.853Z,60.98
2023-02-26T10:23:43.659Z,62.12
2023-02-26T10:26:20.073Z,62.05
2023-02-26T10:29:23.052Z,60.85
2023-02-26T10:32:45.706Z,59.71
2023-02-26T10:35:17.148Z,59.51
2023-02-26T10:38:03.002Z,59.42
2023-02-26T10:40:59.469Z,58.14
2023-02-26T10:43:40.363Z,57.58
2023-02-26T10:46:17.812Z,56.79
2023-02-26T10:49:09.360Z,56.30
2023-02-26T10:51:38.698Z,56.03
2023-02-26T10:54:16.941Z,55.84
2023-02-26T10:56:43.606Z,55.94
2023-02-26T10:59:10.534Z,54.67
2023-02-26T11:01:37.415Z,55.25
2023-02-26T11:04:09.465Z,54.54
2023-02-26T11:06:44.330Z,53.71
2023-02-26T11:09:36.605Z,54.38
2023-02-26T11:12:15.344Z,54.01
2023-02-26T11:14:43.555Z,53.07
2023-02-26T11:17:19.198Z,52.59
2023-02-26T11:20:01.092Z,52.66
2023-02-26T11:22:32.355Z,52.22
2023-02-26T11:24:59.860Z,51.55
2023-02-26T11:27:32.036Z,50.87
2023-02-26T11:30:19.116Z,51.30
2023-02-26T11:32:50.834Z,51.82
2023-02-26T11:35:19.120Z,52.19
2023-02-26T11:37:53.399Z,51.67
2023-02-26T11:40:32.553Z,51.15
2023-02-26T11:43:03.861Z,52.03
2023-02-26T11:45:30.668Z,51.51
2023-02-26T11:48:05.051Z,51.82
2023-02-26T11:50:38.986Z,49.46
2023-02-26T11:53:10.623Z,50.43
2023-02-26T11:55:44.525Z,49.96
2023-02-26T11:58:20.626Z,50.37
2023-02-26T12:00:49.764Z,50.83
2023-02-26T12:03:20.300Z,51.12
2023-02-26T12:05:47.208Z,51.15
2023-02-26T12:08:30.416Z,52.60
2023-02-26T12:11:23.817Z,53.43
2023-02-26T12:14:18.422Z,54.18
2023-02-26T12:17:07.927Z,55.16
2023-02-26T12:19:46.131Z,55.32
2023-02-26T12:22:32.834Z,55.50
2023-02-26T12:25:05.655Z,54.86
2023-02-26T12:27:52.382Z,54.43
2023-02-26T12:30:38.274Z,54.34
2023-02-26T12:33:14.428Z,52.57
2023-02-26T12:36:10.704Z,52.32
2023-02-26T12:38:55.728Z,54.52
2023-02-26T12:41:57.817Z,50.77
2023-02-26T12:44:52.291Z,51.19
2023-02-26T12:47:47.644Z,51.61
2023-02-26T12:50:20.223Z,52.79
2023-02-26T12:53:14.216Z,52.50
2023-02-26T12:56:14.940Z,51.72
2023-02-26T12:59:02.675Z,51.56
2023-02-26T13:01:36.548Z,51.61
2023-02-26T13:04:09.059Z,51.82
2023-02-26T13:06:47.789Z,49.96
2023-02-26T13:09:23.347Z,51.69
2023-02-26T13:12:07.836Z,50.59
2023-02-26T13:14:56.013Z,51.02
2023-02-26T13:17:51.015Z,50.77
2023-02-26T13:20:25.155Z,51.06
2023-02-26T13:22:59.585Z,50.19
2023-02-26T13:25:51.906Z,51.63
2023-02-26T13:28:40.156Z,51.21
2023-02-26T13:31:20.097Z,52.05
2023-02-26T13:33:50.011Z,52.28
2023-02-26T13:36:19.385Z,52.17
2023-02-26T13:38:49.134Z,52.15
2023-02-26T13:41:22.592Z,51.43
2023-02-26T13:44:21.825Z,51.81
2023-02-26T13:47:17.023Z,51.84
2023-02-26T13:50:20.454Z,50.41
2023-02-26T13:52:56.393Z,49.29
2023-02-26T13:55:45.481Z,49.12
2023-02-26T13:58:24.476Z,49.76
2023-02-26T14:01:04.130Z,49.01
2023-02-26T14:03:32.710Z,49.76
2023-02-26T14:06:23.786Z,49.88
2023-02-26T14:08:54.472Z,50.22
2023-02-26T14:11:44.559Z,50.50
2023-02-26T14:14:17.205Z,49.70
2023-02-26T14:16:49.342Z,48.70
2023-02-26T14:19:34.431Z,48.34
2023-02-26T14:22:25.863Z,48.74
2023-02-26T14:25:17.519Z,49.62
2023-02-26T14:27:47.359Z,48.90
2023-02-26T14:30:27.831Z,49.06
2023-02-26T14:33:08.168Z,47.96
2023-02-26T14:35:40.635Z,47.42
2023-02-26T14:38:15.786Z,47.19
2023-02-26T14:41:18.835Z,47.51
2023-02-26T14:43:54.597Z,48.07
2023-02-26T14:46:21.622Z,48.54
2023-02-26T14:48:48.587Z,48.70
2023-02-26T14:51:25.197Z,48.26
2023-02-26T14:53:57.124Z,49.58
2023-02-26T14:57:13.299Z,48.50
2023-02-26T15:00:10.806Z,48.02
2023-02-26T15:02:55.579Z,47.91
2023-02-26T15:05:38.669Z,48.63
2023-02-26T15:08:22.593Z,48.59
2023-02-26T15:11:19.992Z,47.73
2023-02-26T15:14:24.267Z,47.65
2023-02-26T15:16:53.754Z,48.18
2023-02-26T15:19:26.481Z,47.89
2023-02-26T15:21:59.948Z,47.81
2023-02-26T15:24:29.622Z,47.70
2023-02-26T15:27:00.112Z,48.27
2023-02-26T15:29:31.532Z,48.66
2023-02-26T15:32:05.761Z,49.46
2023-02-26T15:34:34.149Z,49.61
2023-02-26T15:37:01.365Z,52.65
2023-02-26T15:39:28.132Z,52.67
2023-02-26T15:41:56.216Z,51.93
2023-02-26T15:44:27.652Z,52.54
2023-02-26T15:47:03.526Z,52.08
2023-02-26T15:49:38.284Z,50.72
2023-02-26T15:52:07.614Z,49.75
2023-02-26T15:54:54.526Z,50.27
2023-02-26T15:57:24.297Z,48.52
2023-02-26T15:59:54.124Z,48.00
2023-02-26T16:02:32.352Z,47.48
2023-02-26T16:04:59.468Z,48.75
2023-02-26T16:07:26.329Z,50.30
2023-02-26T16:09:54.851Z,51.08
2023-02-26T16:12:36.505Z,52.25
2023-02-26T16:15:08.296Z,52.27
2023-02-26T16:17:39.732Z,53.54
2023-02-26T16:20:14.923Z,53.45
2023-02-26T16:22:56.578Z,52.58
2023-02-26T16:25:29.869Z,53.17
2023-02-26T16:28:06.276Z,52.96
2023-02-26T16:30:38.805Z,53.52
2023-02-26T16:33:11.952Z,53.77
2023-02-26T16:35:46.692Z,54.26
2023-02-26T16:38:25.676Z,53.72
2023-02-26T16:41:10.966Z,54.00
2023-02-26T16:43:49.515Z,54.73
2023-02-26T16:46:37.666Z,55.23
2023-02-26T16:49:04.379Z,55.75
2023-02-26T16:51:34.728Z,55.83
2023-02-26T16:54:07.574Z,56.55
2023-02-26T16:56:41.030Z,56.80
2023-02-26T16:59:13.752Z,56.41
2023-02-26T17:01:49.966Z,56.88
2023-02-26T17:04:19.615Z,57.29
2023-02-26T17:06:47.581Z,57.70
2023-02-26T17:09:29.420Z,57.51
2023-02-26T17:12:45.899Z,58.25
2023-02-26T17:15:21.415Z,58.70
2023-02-26T17:17:48.697Z,59.18
2023-02-26T17:20:15.658Z,59.93
2023-02-26T17:22:44.936Z,59.83
2023-02-26T17:25:15.882Z,60.14
2023-02-26T17:27:43.352Z,60.05
2023-02-26T17:30:18.748Z,60.15
2023-02-26T17:32:45.515Z,60.48
2023-02-26T17:35:16.926Z,60.45
2023-02-26T17:37:46.787Z,60.30
2023-02-26T17:40:36.478Z,60.22
2023-02-26T17:43:04.651Z,60.11
2023-02-26T17:45:33.129Z,59.99
2023-02-26T17:48:00.335Z,59.91
2023-02-26T17:50:50.392Z,59.96
2023-02-26T17:53:18.897Z,59.85
2023-02-26T17:55:47.551Z,60.36
2023-02-26T17:58:28.812Z,60.54
2023-02-26T18:00:56.315Z,61.24
2023-02-26T18:03:23.153Z,61.18
2023-02-26T18:05:52.145Z,61.07
2023-02-26T18:08:25.203Z,61.45
2023-02-26T18:10:52.715Z,61.45
2023-02-26T18:13:20.254Z,61.31
2023-02-26T18:15:47.863Z,61.58
2023-02-26T18:18:15.880Z,62.10
2023-02-26T18:20:44.066Z,62.08
2023-02-26T18:23:13.804Z,62.90
2023-02-26T18:25:41.400Z,63.31
2023-02-26T18:28:18.709Z,64.25
2023-02-26T18:30:47.153Z,65.13
2023-02-26T18:33:17.193Z,66.19
2023-02-26T18:35:47.115Z,66.56
2023-02-26T18:38:16.087Z,66.85
2023-02-26T18:40:43.923Z,66.96
2023-02-26T18:43:12.714Z,67.69
2023-02-26T18:45:40.305Z,68.33
2023-02-26T18:48:07.037Z,68.45
2023-02-26T18:50:34.055Z,68.50
2023-02-26T18:53:00.888Z,68.54
2023-02-26T18:55:27.568Z,67.90
2023-02-26T18:57:54.338Z,67.56
2023-02-26T19:00:21.745Z,67.59
2023-02-26T19:02:48.539Z,67.09
2023-02-26T19:05:16.515Z,67.86
2023-02-26T19:07:43.478Z,68.33
2023-02-26T19:10:14.647Z,68.07
2023-02-26T19:12:42.018Z,67.37
2023-02-26T19:15:10.214Z,68.70
2023-02-26T19:17:36.889Z,70.62
2023-02-26T19:20:03.849Z,68.88
2023-02-26T19:22:30.618Z,68.82
2023-02-26T19:24:57.254Z,68.57
2023-02-26T19:27:23.948Z,68.69
2023-02-26T19:29:50.711Z,68.75
2023-02-26T19:32:17.505Z,69.05
2023-02-26T19:34:44.357Z,69.86
2023-02-26T19:37:11.192Z,68.32
2023-02-26T19:39:38.403Z,68.22
2023-02-26T19:42:05.712Z,68.76
2023-02-26T19:44:32.639Z,69.06
2023-02-26T19:47:00.079Z,68.63
2023-02-26T19:49:27.424Z,68.79
2023-02-26T19:51:54.098Z,68.63
2023-02-26T19:54:21.270Z,68.63
2023-02-26T19:56:49.591Z,68.46
2023-02-26T19:59:16.826Z,68.91
2023-02-26T20:01:44.025Z,68.25
2023-02-26T20:04:10.797Z,68.26
2023-02-26T20:06:37.976Z,68.57
2023-02-26T20:09:07.244Z,68.74
2023-02-26T20:11:34.715Z,69.00
2023-02-26T20:14:02.447Z,70.08
2023-02-26T20:16:29.254Z,70.86
2023-02-26T20:18:55.879Z,70.47
2023-02-26T20:21:23.383Z,70.21
2023-02-26T20:23:50.502Z,70.18
2023-02-26T20:26:17.236Z,70.38
2023-02-26T20:28:44.546Z,71.39
2023-02-26T20:31:11.790Z,71.28
2023-02-26T20:33:39.538Z,72.68
2023-02-26T20:36:09.359Z,73.28
2023-02-26T20:38:36.202Z,74.18
2023-02-26T20:41:03.643Z,74.89
2023-02-26T20:43:30.375Z,76.13
2023-02-26T20:45:57.060Z,76.27
2023-02-26T20:48:24.760Z,75.99
2023-02-26T20:50:53.668Z,74.63
2023-02-26T20:53:21.637Z,73.79
2023-02-26T20:55:48.907Z,75.24
2023-02-26T20:58:16.148Z,74.58
2023-02-26T21:00:43.740Z,74.51
2023-02-26T21:03:10.563Z,73.93
2023-02-26T21:05:38.627Z,74.83
2023-02-26T21:08:05.768Z,75.79
2023-02-26T21:10:32.808Z,76.70
2023-02-26T21:12:59.900Z,76.71
2023-02-26T21:15:26.756Z,76.62
2023-02-26T21:17:53.683Z,76.38
2023-02-26T21:20:22.307Z,76.81
2023-02-26T21:22:49.646Z,76.46
2023-02-26T21:25:16.720Z,76.74
2023-02-26T21:27:43.798Z,75.79
2023-02-26T21:30:12.255Z,74.99
2023-02-26T21:32:40.145Z,76.33
2023-02-26T21:35:09.007Z,77.55
2023-02-26T21:37:39.082Z,78.85
2023-02-26T21:40:06.690Z,79.11
2023-02-26T21:42:33.521Z,78.81
2023-02-26T21:45:00.352Z,79.54
2023-02-26T21:47:27.003Z,79.78
2023-02-26T21:49:53.823Z,81.58
2023-02-26T21:52:20.555Z,81.93
2023-02-26T21:54:47.232Z,82.13
2023-02-26T21:57:14.060Z,82.33
2023-02-26T21:59:40.877Z,82.59
2023-02-26T22:02:07.792Z,83.11
2023-02-26T22:04:34.849Z,83.53
2023-02-26T22:07:01.583Z,82.90
2023-02-26T22:09:28.286Z,83.31
2023-02-26T22:11:55.025Z,83.25
2023-02-26T22:14:22.031Z,83.86
2023-02-26T22:16:48.736Z,81.96
2023-02-26T22:19:15.409Z,81.54
2023-02-26T22:21:42.105Z,81.67
2023-02-26T22:24:09.246Z,81.67
2023-02-26T22:26:36.277Z,81.74
2023-02-26T22:29:03.734Z,82.37
2023-02-26T22:31:32.282Z,82.01
2023-02-26T22:33:59.849Z,82.31
2023-02-26T22:36:27.667Z,82.25
2023-02-26T22:38:54.553Z,82.63
2023-02-26T22:41:21.265Z,83.06
2023-02-26T22:43:48.019Z,83.10
2023-02-26T22:46:17.020Z,83.78
2023-02-26T22:48:44.552Z,83.00
2023-02-26T22:51:11.228Z,82.65
2023-02-26T22:53:37.982Z,82.82
2023-02-26T22:56:04.982Z,82.65
2023-02-26T22:58:31.828Z,82.87
2023-02-26T23:01:05.135Z,82.50
2023-02-26T23:03:32.556Z,82.90
2023-02-26T23:06:00.188Z,83.52
2023-02-26T23:08:27.973Z,83.26
2023-02-26T23:10:59.198Z,83.81
2023-02-26T23:13:27.274Z,83.18
2023-02-26T23:15:54.083Z,82.91
2023-02-26T23:18:21.097Z,83.20
2023-02-26T23:20:49.108Z,83.34
2023-02-26T23:23:16.325Z,83.00
2023-02-26T23:25:43.795Z,82.50
2023-02-26T23:28:10.591Z,82.87
2023-02-26T23:30:37.358Z,82.70
2023-02-26T23:33:05.392Z,83.13
2023-02-26T23:35:32.069Z,82.79
2023-02-26T23:37:58.696Z,83.54
2023-02-26T23:40:25.625Z,82.96
2023-02-26T23:42:52.988Z,83.03
2023-02-26T23:45:19.748Z,83.30
2023-02-26T23:47:46.424Z,83.52
2023-02-26T23:50:13.390Z,83.61
2023-02-26T23:52:40.144Z,85.36
2023-02-26T23:55:07.582Z,85.61
2023-02-26T23:57:34.340Z,88.30
